Time;durP1;ratioP1;P1;durP2;ratioP2;P2;SDS_P1;SDS_P2;PMS_P1;PMS_P2;Temp;Humidity;BMP_temperature;BMP_pressure;BME280_temperature;BME280_humidity;BME280_pressure;Samples;Min_cycle;Max_cycle;Signal;HPM_P1;HPM_P2
2023/10/18 00:02:20;;;;;;;10.85;3.13;;;;;;;18.27;67.37;98511.50;5054035;28;20044;-80
2023/10/18 00:05:10;;;;;;;14.73;3.10;;;;;;;17.99;68.12;98492.22;5052807;28;20083;-80
2023/10/18 00:07:59;;;;;;;10.57;2.92;;;;;;;18.15;67.91;98503.75;5042233;28;20091;-81
2023/10/18 00:10:44;;;;;;;9.63;2.80;;;;;;;19.11;65.80;98492.16;5041007;28;20044;-81
2023/10/18 00:13:28;;;;;;;12.88;3.30;;;;;;;18.94;65.86;98495.00;5034307;28;20056;-81
2023/10/18 00:16:12;;;;;;;6.47;3.20;;;;;;;18.87;66.64;98492.63;5033953;28;20052;-81
2023/10/18 00:18:56;;;;;;;9.43;3.20;;;;;;;19.00;66.17;98493.19;5037037;28;20090;-80
2023/10/18 00:21:40;;;;;;;8.85;3.03;;;;;;;19.16;66.20;98491.34;5046439;28;20039;-82
2023/10/18 00:24:24;;;;;;;12.50;3.72;;;;;;;19.00;66.03;98487.84;5039671;28;20056;-80
2023/10/18 00:27:09;;;;;;;14.88;3.55;;;;;;;19.02;65.92;98488.38;5038986;28;20508;-81
2023/10/18 00:29:54;;;;;;;9.30;3.28;;;;;;;18.88;66.33;98488.88;5045069;28;20047;-79
2023/10/18 00:32:38;;;;;;;12.15;3.47;;;;;;;18.63;67.23;98485.09;5045327;28;20036;-80
2023/10/18 00:35:29;;;;;;;15.68;4.07;;;;;;;18.68;66.85;98482.47;5040202;28;20095;-80
2023/10/18 00:38:16;;;;;;;10.60;3.08;;;;;;;18.56;66.81;98466.72;5039870;28;20044;-80
2023/10/18 00:41:05;;;;;;;16.08;3.30;;;;;;;18.83;66.64;98468.41;5047675;28;20492;-79
2023/10/18 00:43:52;;;;;;;15.13;3.15;;;;;;;18.82;66.52;98453.50;5042652;28;20086;-79
2023/10/18 00:46:38;;;;;;;10.13;3.33;;;;;;;19.03;66.07;98460.72;5050676;28;20047;-78
2023/10/18 00:49:22;;;;;;;9.30;3.30;;;;;;;19.31;65.68;98461.28;5045967;28;20048;-79
2023/10/18 00:52:07;;;;;;;15.93;3.83;;;;;;;19.18;65.84;98452.78;5046610;28;20517;-79
2023/10/18 00:54:52;;;;;;;14.27;3.60;;;;;;;19.19;66.10;98448.25;5047251;28;20048;-80
2023/10/18 00:57:37;;;;;;;13.85;3.90;;;;;;;19.30;65.72;98462.38;5050502;28;20513;-81
2023/10/18 01:00:24;;;;;;;13.48;3.80;;;;;;;19.35;65.65;98465.00;5035283;28;20572;-81
2023/10/18 01:03:51;;;;;;;10.60;3.85;;;;;;;19.45;65.16;98449.03;5033172;28;20044;-80
2023/10/18 01:06:20;;;;;;;11.00;3.28;;;;;;;20.05;64.35;98448.44;5037555;28;20511;-81
2023/10/18 01:09:05;;;;;;;13.82;4.18;;;;;;;19.89;64.08;98441.53;5041437;28;20060;-80
2023/10/18 01:11:50;;;;;;;14.15;3.55;;;;;;;18.99;66.18;98441.88;5040295;28;20068;-80
2023/10/18 01:14:34;;;;;;;19.33;4.68;;;;;;;19.10;66.24;98443.44;5026459;28;20103;-79
2023/10/18 01:17:20;;;;;;;12.90;3.60;;;;;;;19.11;66.38;98437.06;5039319;28;20044;-80
2023/10/18 01:20:47;;;;;;;14.45;3.97;;;;;;;19.09;66.01;98425.13;5039607;28;20044;-81
2023/10/18 01:23:12;;;;;;;11.65;4.47;;;;;;;18.74;66.88;98419.44;5044339;28;20094;-80
2023/10/18 01:25:56;;;;;;;8.93;4.03;;;;;;;19.21;66.21;98420.31;5046623;28;20128;-80
2023/10/18 01:28:41;;;;;;;14.85;4.25;;;;;;;18.93;67.18;98419.75;5037880;28;20052;-79
2023/10/18 01:31:25;;;;;;;12.35;3.88;;;;;;;18.92;66.77;98414.69;5035981;28;20048;-79
2023/10/18 01:34:10;;;;;;;15.18;4.50;;;;;;;19.09;66.50;98412.59;5052133;28;20113;-80
2023/10/18 01:36:56;;;;;;;17.42;3.88;;;;;;;19.29;66.15;98410.22;5036101;28;20045;-80
2023/10/18 01:39:40;;;;;;;14.18;3.78;;;;;;;19.23;66.32;98402.22;5035522;28;20064;-80
2023/10/18 01:42:25;;;;;;;;;;;;;;;19.09;66.54;98401.19;5036223;28;20079;-80
2023/10/18 01:45:09;;;;;;;11.75;3.80;;;;;;;19.01;66.67;98388.41;5027839;28;19920;-80
2023/10/18 01:47:54;;;;;;;14.48;4.13;;;;;;;18.77;67.23;98389.69;5049030;28;20068;-81
2023/10/18 01:50:39;;;;;;;17.40;4.18;;;;;;;18.81;67.66;98389.94;5043466;28;20031;-79
2023/10/18 01:53:23;;;;;;;14.57;4.30;;;;;;;18.78;67.27;98362.06;5040488;28;20044;-79
2023/10/18 01:56:07;;;;;;;11.50;4.05;;;;;;;19.22;66.99;98378.56;5046610;28;20423;-80
2023/10/18 01:58:51;;;;;;;15.93;4.38;;;;;;;19.16;66.20;98369.78;5043688;28;20059;-79
2023/10/18 02:01:35;;;;;;;12.07;4.35;;;;;;;19.71;65.65;98363.81;5046140;28;20186;-79
2023/10/18 02:04:26;;;;;;;10.35;4.07;;;;;;;19.43;66.14;98363.34;5037904;28;20084;-79
2023/10/18 02:07:17;;;;;;;16.98;5.18;;;;;;;19.39;66.20;98367.59;5043647;28;20071;-78
2023/10/18 02:10:02;;;;;;;11.45;4.65;;;;;;;19.19;66.52;98358.59;5036877;28;20043;-80
2023/10/18 02:12:47;;;;;;;13.68;4.75;;;;;;;19.26;66.31;98363.66;5043803;28;20036;-79
2023/10/18 02:15:32;;;;;;;16.02;4.65;;;;;;;19.30;66.43;98347.94;5045193;28;20051;-80
2023/10/18 02:18:16;;;;;;;21.48;5.53;;;;;;;18.98;67.28;98341.84;5040035;28;20040;-80
2023/10/18 02:21:02;;;;;;;9.60;3.92;;;;;;;19.33;66.67;98350.06;5041013;28;20545;-81
2023/10/18 02:23:50;;;;;;;13.32;4.50;;;;;;;19.09;67.09;98347.97;5037520;28;20083;-79
2023/10/18 02:26:35;;;;;;;17.02;4.38;;;;;;;19.21;66.72;98340.50;5043987;28;20106;-78
2023/10/18 02:29:19;;;;;;;22.48;5.22;;;;;;;19.22;66.49;98334.09;5046656;28;20049;-78
2023/10/18 02:32:06;;;;;;;10.15;4.47;;;;;;;18.89;67.61;98320.31;5044085;28;20040;-79
2023/10/18 02:34:54;;;;;;;18.95;4.78;;;;;;;19.27;66.93;98333.31;5050072;28;20125;-79
2023/10/18 02:37:37;;;;;;;14.23;4.50;;;;;;;18.73;67.11;98308.06;5052280;28;20398;-79
2023/10/18 02:40:30;;;;;;;18.15;5.05;;;;;;;19.22;66.74;98310.16;5045325;28;20056;-80
2023/10/18 02:43:15;;;;;;;13.48;4.28;;;;;;;19.45;66.39;98310.63;5042107;28;20559;-78
2023/10/18 02:45:59;;;;;;;16.10;5.32;;;;;;;19.26;66.74;98300.59;5045750;28;20051;-79
2023/10/18 02:48:44;;;;;;;12.90;4.80;;;;;;;19.19;66.73;98297.41;5046787;28;20048;-79
2023/10/18 02:51:28;;;;;;;20.70;5.72;;;;;;;18.73;67.92;98286.81;5041651;28;20032;-78
2023/10/18 02:56:59;;;;;;;15.63;5.15;;;;;;;19.42;66.88;98292.56;5052547;28;20435;-79
2023/10/18 02:59:43;;;;;;;16.73;5.93;;;;;;;18.97;67.26;98281.75;5036218;28;20079;-78
2023/10/18 03:02:27;;;;;;;15.00;5.18;;;;;;;19.03;67.41;98287.84;5040673;28;20450;-80
2023/10/18 03:05:11;;;;;;;15.70;5.78;;;;;;;19.13;67.36;98282.53;5043820;28;20394;-79
2023/10/18 03:07:55;;;;;;;16.80;5.68;;;;;;;19.18;67.15;98271.88;5045639;28;20451;-79
2023/10/18 03:10:44;;;;;;;12.45;5.40;;;;;;;19.09;67.73;98276.94;5044982;28;20090;-80
2023/10/18 03:13:28;;;;;;;19.40;6.18;;;;;;;19.36;67.25;98267.84;5045280;28;20075;-79
2023/10/18 03:16:15;;;;;;;22.95;6.03;;;;;;;18.90;67.96;98270.56;5049250;28;20140;-78
2023/10/18 03:19:04;;;;;;;16.63;5.53;;;;;;;19.07;67.80;98265.00;5043154;28;20115;-79
2023/10/18 03:21:50;;;;;;;13.05;5.80;;;;;;;18.98;67.59;98240.78;5047844;28;20098;-80
2023/10/18 03:24:36;;;;;;;15.63;6.50;;;;;;;18.73;68.39;98249.59;5049406;28;20386;-79
2023/10/18 03:27:24;;;;;;;22.60;7.25;;;;;;;19.06;67.97;98248.22;5048083;28;20434;-79
2023/10/18 03:30:18;;;;;;;16.13;6.30;;;;;;;19.04;67.98;98237.06;5039122;28;20110;-79
2023/10/18 03:33:02;;;;;;;18.65;6.97;;;;;;;19.03;68.18;98234.66;5048127;28;20040;-79
2023/10/18 03:36:06;;;;;;;20.75;7.30;;;;;;;19.25;67.74;98219.16;5043793;28;20124;-79
2023/10/18 03:38:54;;;;;;;15.48;6.60;;;;;;;18.87;68.31;98224.06;5042598;28;20457;-78
2023/10/18 03:41:40;;;;;;;22.23;8.77;;;;;;;18.58;69.37;98227.28;5040458;28;20043;-79
2023/10/18 03:44:27;;;;;;;15.20;6.82;;;;;;;18.80;68.94;98220.88;5050929;28;20067;-80
2023/10/18 03:47:12;;;;;;;15.52;7.03;;;;;;;18.99;68.42;98221.13;5041676;28;20044;-79
2023/10/18 03:49:58;;;;;;;22.40;8.35;;;;;;;18.94;68.31;98208.59;5040391;28;20121;-79
2023/10/18 03:52:45;;;;;;;20.15;8.18;;;;;;;19.05;68.20;98200.63;5045735;28;20142;-79
2023/10/18 03:55:38;;;;;;;21.17;8.52;;;;;;;18.65;69.02;98195.91;5053244;28;20430;-80
2023/10/18 03:58:22;;;;;;;23.48;9.05;;;;;;;19.27;67.98;98187.78;5048111;28;20127;-79
2023/10/18 04:01:12;;;;;;;20.23;8.15;;;;;;;19.36;67.76;98187.22;5048328;28;20092;-80
2023/10/18 04:03:56;;;;;;;28.67;9.45;;;;;;;19.05;68.50;98182.00;5037630;28;20104;-80
2023/10/18 04:06:42;;;;;;;24.90;8.68;;;;;;;18.85;68.48;98180.97;5051561;28;20032;-80
2023/10/18 04:09:27;;;;;;;17.40;8.77;;;;;;;19.20;68.06;98179.28;5044288;28;20044;-79
2023/10/18 04:12:16;;;;;;;22.95;8.93;;;;;;;19.53;67.59;98182.34;5047748;28;20048;-79
2023/10/18 04:15:09;;;;;;;20.92;9.23;;;;;;;19.42;67.50;98175.47;5020390;28;20717;-81
2023/10/18 04:20:52;;;;;;;21.42;11.10;;;;;;;19.92;66.64;98161.34;5020747;28;20548;-80
2023/10/18 04:23:36;;;;;;;29.17;10.45;;;;;;;19.71;66.78;98150.81;5053200;28;20183;-80
2023/10/18 04:26:21;;;;;;;18.45;8.73;;;;;;;19.75;66.75;98154.53;5047383;28;20106;-80
2023/10/18 04:29:10;;;;;;;24.48;9.40;;;;;;;19.60;67.27;98143.97;5046894;28;20075;-79
2023/10/18 04:31:56;;;;;;;23.88;9.75;;;;;;;19.78;66.70;98135.31;5038820;28;20033;-80
2023/10/18 04:34:40;;;;;;;25.48;10.07;;;;;;;19.65;67.14;98123.44;5033585;28;20035;-81
2023/10/18 04:37:24;;;;;;;20.02;9.95;;;;;;;19.47;67.38;98124.09;5033509;28;20148;-81
2023/10/18 04:40:22;;;;;;;25.08;10.50;;;;;;;19.59;67.14;98118.41;5033531;28;20179;-80
2023/10/18 04:43:06;;;;;;;29.60;10.75;;;;;;;19.86;66.57;98123.28;5052076;28;20444;-81
2023/10/18 04:45:57;;;;;;;25.08;10.23;;;;;;;19.74;66.94;98112.19;5048123;28;20537;-81
2023/10/18 04:54:36;;;;;;;18.65;9.38;;;;;;;20.00;66.44;98094.16;5032688;28;20088;-78
2023/10/18 04:57:22;;;;;;;15.50;9.75;;;;;;;19.91;66.56;98080.66;5032614;28;20534;-81
2023/10/18 05:00:24;;;;;;;21.30;10.98;;;;;;;19.87;66.62;98084.16;5032414;28;20600;-82
2023/10/18 05:03:13;;;;;;;21.15;10.32;;;;;;;19.67;67.04;98077.91;5046702;28;20506;-80
2023/10/18 05:05:57;;;;;;;27.77;10.77;;;;;;;19.48;67.31;98073.25;5053189;28;20048;-79
2023/10/18 05:08:42;;;;;;;20.15;11.50;;;;;;;19.47;67.21;98061.03;5053163;28;20090;-80
2023/10/18 05:11:27;;;;;;;27.45;11.80;;;;;;;19.08;68.29;98053.81;5052970;28;20036;-80
2023/10/18 05:14:19;;;;;;;23.60;10.23;;;;;;;19.03;68.36;98036.03;5053384;28;20533;-81
2023/10/18 05:17:10;;;;;;;24.08;9.90;;;;;;;18.91;68.98;98044.31;5052124;28;20048;-80
2023/10/18 05:19:57;;;;;;;24.85;11.05;;;;;;;18.96;68.92;98038.94;5052218;28;20056;-80
2023/10/18 05:22:41;;;;;;;23.63;10.15;;;;;;;18.76;69.51;98031.06;5052795;28;20457;-81
2023/10/18 05:25:33;;;;;;;24.52;10.75;;;;;;;18.86;69.06;98035.56;5051713;28;20087;-79
2023/10/18 05:28:24;;;;;;;26.90;10.00;;;;;;;18.80;69.21;98029.47;5048989;28;20110;-80
2023/10/18 05:36:55;;;;;;;27.15;10.43;;;;;;;18.49;69.98;98024.28;5028532;28;20516;-80
2023/10/18 05:40:42;;;;;;;26.70;9.38;;;;;;;18.33;70.22;97999.63;5049926;28;20128;-81
2023/10/18 05:42:55;;;;;;;29.00;9.90;;;;;;;18.29;70.25;97996.72;5037221;28;20052;-79
2023/10/18 05:45:42;;;;;;;18.45;8.75;;;;;;;18.41;70.10;98010.47;5038402;28;20064;-79
2023/10/18 05:48:27;;;;;;;24.52;10.02;;;;;;;18.38;70.47;98005.72;5040356;28;20072;-80
2023/10/18 05:54:08;;;;;;;28.40;9.38;;;;;;;18.41;70.04;97999.84;5047201;28;20094;-80
2023/10/18 05:56:53;;;;;;;29.45;10.98;;;;;;;18.30;71.07;97995.66;5039109;28;20087;-80
2023/10/18 05:59:37;;;;;;;29.23;14.70;;;;;;;18.30;71.26;97981.56;5043480;28;20071;-80
2023/10/18 06:02:25;;;;;;;31.38;15.93;;;;;;;18.22;71.71;97986.38;5034019;28;20060;-79
2023/10/18 06:05:12;;;;;;;34.13;15.35;;;;;;;17.79;73.45;97992.03;5048318;28;20052;-80
2023/10/18 06:07:57;;;;;;;38.10;19.92;;;;;;;18.06;72.87;97985.63;5056258;28;20552;-80
2023/10/18 06:10:41;;;;;;;29.38;16.20;;;;;;;18.35;72.78;97990.31;5049307;28;20072;-80
2023/10/18 06:13:27;;;;;;;30.75;14.98;;;;;;;18.26;72.61;97976.00;5054657;28;20086;-80
2023/10/18 06:16:20;;;;;;;28.40;13.77;;;;;;;18.42;72.14;97980.19;5055829;28;20047;-80
2023/10/18 06:19:07;;;;;;;29.60;14.52;;;;;;;18.65;72.18;97977.16;5055972;28;20067;-80
2023/10/18 06:22:02;;;;;;;32.95;12.82;;;;;;;18.92;71.46;97976.75;5035423;28;20044;-79
2023/10/18 06:24:48;;;;;;;24.67;13.10;;;;;;;19.00;71.33;97961.31;5043728;28;20047;-80
2023/10/18 06:27:38;;;;;;;32.90;12.00;;;;;;;18.78;72.02;97968.59;5038895;28;20128;-80
2023/10/18 06:30:24;;;;;;;30.77;13.68;;;;;;;18.98;71.47;97958.91;5022911;28;20035;-80
2023/10/18 06:33:09;;;;;;;30.63;12.10;;;;;;;18.87;71.43;97952.88;5055838;28;20044;-80
2023/10/18 06:35:53;;;;;;;30.35;11.73;;;;;;;19.12;70.98;97959.09;5046269;28;20097;-78
2023/10/18 06:38:37;;;;;;;25.15;10.88;;;;;;;19.27;70.45;97950.19;5037195;28;20068;-80
2023/10/18 06:41:21;;;;;;;33.47;11.57;;;;;;;18.90;70.68;97952.31;5028988;28;20052;-80
2023/10/18 06:44:11;;;;;;;23.42;11.02;;;;;;;18.60;71.98;97948.75;5040296;28;20470;-78
2023/10/18 06:46:54;;;;;;;29.58;13.52;;;;;;;18.74;71.58;97934.88;5043847;28;20391;-80
2023/10/18 06:49:42;;;;;;;28.25;14.02;;;;;;;18.76;71.94;97946.00;5046441;28;20426;-80
2023/10/18 06:52:30;;;;;;;28.30;12.63;;;;;;;18.69;71.48;97936.50;5043491;28;20553;-78
2023/10/18 06:55:16;;;;;;;29.23;10.75;;;;;;;18.73;71.04;97927.97;5045938;28;20478;-78
2023/10/18 06:58:05;;;;;;;24.73;11.80;;;;;;;18.80;71.13;97928.44;5044120;28;20544;-80
2023/10/18 07:01:00;;;;;;;20.80;10.23;;;;;;;18.75;71.36;97915.19;5040078;28;20477;-78
2023/10/18 07:03:45;;;;;;;32.60;12.02;;;;;;;18.62;71.25;97920.03;5037906;28;20045;-78
2023/10/18 07:06:29;;;;;;;34.83;12.30;;;;;;;19.01;70.53;97921.16;5049262;28;20071;-78
2023/10/18 07:09:31;;;;;;;32.30;11.48;;;;;;;18.68;71.25;97920.81;5041436;28;20036;-79
2023/10/18 07:12:19;;;;;;;22.85;10.07;;;;;;;18.68;71.88;97913.63;5042363;28;20057;-80
2023/10/18 07:15:09;;;;;;;23.65;10.65;;;;;;;18.66;71.53;97909.66;5039516;28;20044;-80
2023/10/18 07:17:55;;;;;;;32.45;11.55;;;;;;;18.97;71.04;97910.25;5042133;28;20045;-80
2023/10/18 07:20:41;;;;;;;30.70;10.98;;;;;;;18.57;71.81;97885.53;5044510;28;20121;-82
2023/10/18 07:23:26;;;;;;;22.25;10.35;;;;;;;18.90;71.31;97896.47;5055213;28;20044;-81
2023/10/18 07:26:13;;;;;;;28.25;12.00;;;;;;;19.14;70.49;97861.22;5053070;28;20090;-83
2023/10/18 07:28:58;;;;;;;26.60;10.70;;;;;;;18.90;70.77;97872.56;5053265;28;20052;-81
2023/10/18 07:31:44;;;;;;;26.02;10.75;;;;;;;19.03;70.88;97887.09;5039077;28;20074;-81
2023/10/18 07:34:28;;;;;;;27.45;10.45;;;;;;;19.02;71.11;97884.69;5050142;28;20422;-80
2023/10/18 07:37:31;;;;;;;23.02;11.32;;;;;;;18.93;71.19;97869.31;5047804;28;20055;-81
2023/10/18 07:40:21;;;;;;;24.77;11.33;;;;;;;19.08;71.27;97872.97;5025482;28;20091;-84
2023/10/18 07:43:05;;;;;;;26.08;12.50;;;;;;;18.63;71.83;97847.22;5053506;28;20581;-83
2023/10/18 07:45:55;;;;;;;24.70;11.32;;;;;;;19.21;69.97;97831.63;5041154;28;20051;-82
2023/10/18 07:48:46;;;;;;;37.28;13.98;;;;;;;19.05;70.87;97857.56;5054324;28;20075;-83
2023/10/18 07:51:31;;;;;;;33.42;14.32;;;;;;;18.97;70.92;97821.72;5054631;28;20098;-81
2023/10/18 07:54:17;;;;;;;34.90;14.85;;;;;;;19.53;70.38;97823.03;5054724;28;20044;-82
2023/10/18 07:57:01;;;;;;;33.03;12.93;;;;;;;19.64;70.10;97844.19;5054411;28;20507;-82
2023/10/18 07:59:48;;;;;;;28.17;12.73;;;;;;;19.48;70.41;97839.06;5053458;28;20040;-81
2023/10/18 08:02:32;;;;;;;25.13;12.00;;;;;;;19.30;70.09;97821.94;5054819;28;20048;-82
2023/10/18 08:05:19;;;;;;;25.45;11.55;;;;;;;19.63;70.20;97821.31;5053785;28;20509;-83
2023/10/18 08:08:08;;;;;;;23.92;11.85;;;;;;;19.39;70.40;97822.13;5054196;28;20091;-83
2023/10/18 08:10:56;;;;;;;28.63;12.70;;;;;;;19.69;70.11;97838.84;5054175;28;20094;-81
2023/10/18 08:13:45;;;;;;;26.27;11.15;;;;;;;19.32;70.89;97814.47;5054330;28;20040;-82
2023/10/18 08:16:43;;;;;;;30.95;11.60;;;;;;;19.54;69.98;97800.66;5052767;28;20125;-81
2023/10/18 08:19:30;;;;;;;26.55;12.10;;;;;;;19.55;69.92;97799.59;5054378;28;20051;-82
2023/10/18 08:25:01;;;;;;;25.05;10.45;;;;;;;19.72;69.83;97813.50;5034295;28;20584;-83
2023/10/18 08:27:46;;;;;;;29.13;11.48;;;;;;;19.70;69.45;97797.84;5037948;28;20044;-81
2023/10/18 08:33:26;;;;;;;24.63;9.48;;;;;;;19.53;69.83;97787.63;5034022;28;20556;-81
2023/10/18 08:36:13;;;;;;;27.48;9.73;;;;;;;19.96;68.78;97797.53;5033426;28;20048;-83
2023/10/18 08:38:59;;;;;;;20.98;10.38;;;;;;;20.14;69.02;97800.47;5046167;28;20052;-83
2023/10/18 08:41:59;;;;;;;20.70;8.98;;;;;;;20.15;68.40;97784.22;5039479;28;20570;-82
2023/10/18 08:44:45;;;;;;;21.83;8.52;;;;;;;20.09;68.27;97778.19;5052206;28;20102;-81
2023/10/18 08:47:34;;;;;;;27.48;8.98;;;;;;;20.01;68.35;97760.16;5053500;28;20079;-81
2023/10/18 08:50:19;;;;;;;31.33;9.20;;;;;;;20.27;67.83;97773.13;5052473;28;20036;-82
2023/10/18 08:53:03;;;;;;;23.60;9.10;;;;;;;20.27;67.79;97751.81;5053835;28;20108;-80
2023/10/18 08:55:51;;;;;;;24.88;8.90;;;;;;;20.33;67.79;97733.84;5052156;28;20048;-82
2023/10/18 08:58:37;;;;;;;23.40;8.65;;;;;;;20.57;66.80;97751.63;5033935;28;20044;-82
2023/10/18 09:01:21;;;;;;;22.08;8.32;;;;;;;20.56;66.81;97758.81;5053259;28;20075;-83
2023/10/18 09:04:07;;;;;;;19.55;8.05;;;;;;;20.73;67.38;97752.16;5052595;28;20099;-84
2023/10/18 09:06:51;;;;;;;22.27;7.68;;;;;;;20.80;66.95;97749.91;5042633;28;20407;-82
2023/10/18 09:09:35;;;;;;;20.75;7.35;;;;;;;21.06;66.65;97738.78;5026197;28;20075;-82
2023/10/18 09:12:33;;;;;;;23.67;7.32;;;;;;;21.36;65.83;97741.94;5053436;28;20040;-81
2023/10/18 09:15:36;;;;;;;17.58;7.07;;;;;;;20.69;66.22;97706.59;5052345;28;20449;-82
2023/10/18 09:18:21;;;;;;;18.55;6.82;;;;;;;21.27;65.41;97715.16;5052219;28;20098;-83
2023/10/18 09:21:09;;;;;;;22.27;6.68;;;;;;;20.88;65.41;97706.56;5052040;28;20572;-82
2023/10/18 09:23:59;;;;;;;17.08;5.90;;;;;;;20.91;65.76;97692.63;5053885;28;20178;-82
2023/10/18 09:26:44;;;;;;;19.65;6.82;;;;;;;21.41;65.04;97693.78;5053437;28;20558;-83
2023/10/18 09:29:29;;;;;;;15.63;5.15;;;;;;;21.94;64.56;97686.25;5039587;28;20514;-82
2023/10/18 09:32:32;;;;;;;19.80;6.63;;;;;;;21.60;64.54;97691.00;5043753;28;20040;-82
2023/10/18 09:35:25;;;;;;;21.15;5.85;;;;;;;21.67;63.70;97677.25;5032279;28;20219;-80
2023/10/18 09:38:09;;;;;;;18.38;6.63;;;;;;;21.72;64.03;97687.81;5026177;28;20096;-80
2023/10/18 09:40:53;;;;;;;;;;;;;;;21.65;63.70;97682.13;5020012;28;20440;-81
2023/10/18 09:43:37;;;;;;;15.40;5.38;;;;;;;21.50;64.49;97672.50;5057116;28;20333;-82
2023/10/18 09:46:21;;;;;;;23.75;5.88;;;;;;;21.68;63.86;97684.19;5056973;28;20110;-82
2023/10/18 09:49:09;;;;;;;17.40;5.57;;;;;;;21.31;64.01;97644.06;5052580;28;20401;-81
2023/10/18 09:51:54;;;;;;;23.23;6.25;;;;;;;21.67;63.33;97618.53;5043242;28;20076;-82
2023/10/18 09:54:49;;;;;;;19.63;5.53;;;;;;;22.35;62.74;97663.13;5049364;28;20090;-82
2023/10/18 09:57:40;;;;;;;14.82;5.50;;;;;;;22.57;61.84;97632.88;5056541;28;20048;-82
2023/10/18 10:00:42;;;;;;;22.98;6.10;;;;;;;22.07;62.41;97637.34;5016904;28;20056;-82
2023/10/18 10:03:26;;;;;;;22.55;6.13;;;;;;;22.29;62.40;97621.56;5016796;28;20121;-82
2023/10/18 10:06:11;;;;;;;16.65;5.28;;;;;;;22.39;61.84;97615.97;5026956;28;20556;-82
2023/10/18 10:09:12;;;;;;;22.08;6.43;;;;;;;22.75;61.70;97622.25;5041071;28;20569;-83
2023/10/18 10:11:58;;;;;;;26.58;5.93;;;;;;;22.01;62.05;97606.50;5055256;28;20044;-84
2023/10/18 10:14:42;;;;;;;14.75;5.03;;;;;;;22.56;61.57;97609.91;5053147;28;20521;-83
2023/10/18 10:17:30;;;;;;;18.30;6.30;;;;;;;22.29;61.51;97584.13;5056652;28;20087;-82
2023/10/18 10:20:16;;;;;;;15.98;5.88;;;;;;;22.65;61.17;97597.38;5056652;28;20402;-83
2023/10/18 10:23:06;;;;;;;19.23;5.03;;;;;;;22.55;61.28;97570.91;5056455;28;20067;-84
2023/10/18 10:26:12;;;;;;;28.27;5.40;;;;;;;22.03;62.19;97577.59;5016508;28;20063;-82
2023/10/18 10:31:56;;;;;;;16.35;5.93;;;;;;;21.76;62.81;97583.88;5016195;28;20558;-82
2023/10/18 10:34:41;;;;;;;15.88;5.65;;;;;;;21.45;63.02;97545.31;5016407;28;20517;-83
2023/10/18 10:37:28;;;;;;;14.65;5.57;;;;;;;22.18;62.55;97559.56;5016582;28;20091;-82
2023/10/18 10:40:19;;;;;;;15.10;5.13;;;;;;;22.20;62.21;97538.66;5053040;28;20456;-82
2023/10/18 10:43:14;;;;;;;21.25;5.95;;;;;;;22.58;61.91;97532.84;5035522;28;20048;-81
2023/10/18 10:46:00;;;;;;;17.15;5.07;;;;;;;22.10;62.39;97550.41;5047163;28;20087;-81
2023/10/18 10:48:46;;;;;;;19.63;6.35;;;;;;;22.21;62.08;97535.69;5045530;28;20418;-82
2023/10/18 10:51:37;;;;;;;24.50;6.28;;;;;;;22.59;61.40;97530.97;5055850;28;20043;-83
2023/10/18 10:54:21;;;;;;;28.15;5.30;;;;;;;22.63;61.82;97540.75;5037950;28;20048;-82
2023/10/18 10:57:09;;;;;;;13.93;5.50;;;;;;;22.36;62.18;97507.75;5035648;28;20059;-82
2023/10/18 10:59:55;;;;;;;16.70;5.35;;;;;;;22.44;61.93;97506.22;5045483;28;20552;-82
2023/10/18 11:02:40;;;;;;;15.20;4.95;;;;;;;21.75;63.28;97505.63;5051175;28;20043;-82
2023/10/18 11:05:26;;;;;;;18.17;6.25;;;;;;;22.32;62.14;97493.44;5055436;28;20075;-81
2023/10/18 11:08:12;;;;;;;18.00;6.10;;;;;;;21.81;62.76;97477.72;5045333;28;20487;-82
2023/10/18 11:10:57;;;;;;;21.05;5.50;;;;;;;21.99;62.25;97480.44;5055320;28;20490;-82
2023/10/18 11:13:42;;;;;;;17.15;6.57;;;;;;;22.52;61.89;97485.97;5055459;28;20102;-82
2023/10/18 11:16:26;;;;;;;17.85;5.78;;;;;;;22.79;61.21;97473.41;5054263;28;20559;-80
2023/10/18 11:19:15;;;;;;;19.23;5.65;;;;;;;22.81;61.29;97479.28;5045955;28;20040;-82
2023/10/18 11:21:59;;;;;;;15.55;4.47;;;;;;;22.81;61.14;97458.63;5035084;28;20049;-82
2023/10/18 11:24:44;;;;;;;16.77;6.07;;;;;;;22.16;62.26;97420.13;5043326;28;20048;-81
2023/10/18 11:27:34;;;;;;;19.10;6.28;;;;;;;22.30;62.15;97449.41;5055042;28;20476;-82
2023/10/18 11:30:25;;;;;;;17.60;5.65;;;;;;;22.87;61.53;97413.81;5050160;28;20406;-82
2023/10/18 11:33:20;;;;;;;18.30;5.38;;;;;;;23.08;61.19;97410.47;5015406;28;20065;-83
2023/10/18 11:36:08;;;;;;;22.67;5.30;;;;;;;23.03;61.77;97410.66;5052246;28;20136;-81
2023/10/18 11:41:56;;;;;;;14.70;5.35;;;;;;;23.25;61.58;97389.06;5054713;28;20462;-83
2023/10/18 11:44:40;;;;;;;21.23;6.18;;;;;;;23.29;60.93;97380.38;5053523;28;20051;-82
2023/10/18 11:47:24;;;;;;;19.50;5.95;;;;;;;23.22;60.99;97356.75;5055158;28;20136;-82
2023/10/18 11:50:13;;;;;;;23.13;6.80;;;;;;;23.59;60.64;97359.03;5052528;28;20048;-83
2023/10/18 11:53:12;;;;;;;19.25;5.88;;;;;;;23.28;60.53;97368.13;5051277;28;20067;-82
2023/10/18 11:55:58;;;;;;;18.60;7.05;;;;;;;22.82;61.87;97371.94;5034952;28;20092;-81
2023/10/18 11:59:00;;;;;;;39.20;7.18;;;;;;;22.73;61.66;97346.31;5034648;28;20044;-83
2023/10/18 12:01:45;;;;;;;21.33;6.88;;;;;;;24.08;59.83;97340.66;5034295;28;20044;-82
2023/10/18 12:04:37;;;;;;;26.80;6.80;;;;;;;23.36;60.79;97319.91;5034643;28;20052;-82
2023/10/18 12:07:22;;;;;;;20.75;6.53;;;;;;;22.42;62.03;97317.84;5034376;28;20406;-81
2023/10/18 12:10:15;;;;;;;18.77;6.05;;;;;;;22.60;61.89;97287.34;5034406;28;20510;-82
2023/10/18 12:13:03;;;;;;;14.45;5.70;;;;;;;23.28;61.59;97298.50;5033469;28;20099;-82
2023/10/18 12:15:50;;;;;;;19.85;5.93;;;;;;;23.26;61.21;97272.06;5034342;28;20059;-82
2023/10/18 12:18:35;;;;;;;30.48;6.63;;;;;;;23.18;61.20;97283.56;5050416;28;20192;-81
2023/10/18 12:21:29;;;;;;;15.95;6.13;;;;;;;23.89;60.47;97292.06;5039694;28;20080;-81
2023/10/18 12:24:13;;;;;;;;;;;;;;;23.43;61.81;97286.47;5020933;28;20063;-82
2023/10/18 12:26:59;;;;;;;23.27;6.78;;;;;;;23.25;61.45;97246.38;5034396;28;20020;-81
2023/10/18 12:29:43;;;;;;;21.42;6.18;;;;;;;22.75;62.43;97247.81;5049077;28;20079;-81
2023/10/18 12:32:30;;;;;;;18.35;6.75;;;;;;;23.24;61.63;97248.28;5054644;28;20147;-81
2023/10/18 12:35:15;;;;;;;19.50;6.70;;;;;;;22.74;62.27;97230.19;5053993;28;20036;-82
2023/10/18 12:37:59;;;;;;;20.33;6.38;;;;;;;24.05;60.89;97252.06;5053958;28;20056;-81
2023/10/18 12:40:52;;;;;;;16.90;6.60;;;;;;;23.55;61.26;97222.31;5053191;28;20075;-82
2023/10/18 12:43:44;;;;;;;20.67;6.10;;;;;;;23.78;61.33;97235.38;5053632;28;20056;-81
2023/10/18 12:46:29;;;;;;;20.48;5.80;;;;;;;24.34;59.97;97205.63;5054241;28;20575;-81
2023/10/18 12:49:22;;;;;;;22.40;6.47;;;;;;;24.44;60.01;97214.38;5051371;28;20397;-81
2023/10/18 12:52:21;;;;;;;19.88;5.90;;;;;;;25.19;59.05;97220.63;5041404;28;20556;-83
2023/10/18 12:55:57;;;;;;;16.15;5.82;;;;;;;25.47;58.12;97211.91;5044390;28;20052;-82
2023/10/18 12:58:10;;;;;;;20.95;6.93;;;;;;;24.36;59.65;97191.91;5034149;28;20430;-82
2023/10/18 13:01:05;;;;;;;20.77;6.63;;;;;;;24.72;59.29;97200.34;5032485;28;20087;-81
2023/10/18 13:03:59;;;;;;;18.55;5.82;;;;;;;24.79;59.25;97174.56;5045116;28;20048;-83
2023/10/18 13:06:47;;;;;;;17.90;6.25;;;;;;;23.88;59.88;97151.97;5050445;28;20048;-83
2023/10/18 13:09:31;;;;;;;22.63;6.53;;;;;;;24.68;59.61;97168.81;5053059;28;20090;-82
2023/10/18 13:12:16;;;;;;;20.83;5.80;;;;;;;24.87;59.16;97154.09;5052375;28;20086;-81
2023/10/18 13:15:00;;;;;;;21.42;5.97;;;;;;;24.75;59.08;97154.06;5052091;28;20103;-81
2023/10/18 13:17:44;;;;;;;20.10;7.03;;;;;;;24.19;60.22;97156.09;5053503;28;20103;-80
2023/10/18 13:20:34;;;;;;;;;;;;;;;23.68;61.26;97153.53;5053388;28;20039;-81
2023/10/18 13:23:19;;;;;;;29.98;6.95;;;;;;;24.19;60.02;97133.88;5053253;28;19923;-82
2023/10/18 13:26:04;;;;;;;24.25;7.28;;;;;;;24.14;60.06;97142.91;5052967;28;20171;-82
2023/10/18 13:28:59;;;;;;;19.40;6.72;;;;;;;24.70;59.84;97135.50;5052109;28;20094;-81
2023/10/18 13:31:49;;;;;;;18.10;6.60;;;;;;;25.32;58.40;97143.53;5053186;28;20091;-82